sensor_id;sensor_type;location;lat;lon;timestamp;pressure;altitude;pressure_sealevel;temperature;humidity
22580;BME280;11456;47.030;15.396;2022-10-16T00:01:25;97855.31;;;12.30;100.00
22580;BME280;11456;47.030;15.396;2022-10-16T00:03:53;97858.41;;;12.35;100.00
22580;BME280;11456;47.030;15.396;2022-10-16T00:06:20;97852.94;;;12.27;100.00
22580;BME280;11456;47.030;15.396;2022-10-16T00:08:47;97862.41;;;12.31;100.00
22580;BME280;11456;47.030;15.396;2022-10-16T00:11:15;97858.25;;;12.19;100.00
22580;BME280;11456;47.030;15.396;2022-10-16T00:13:43;97854.88;;;12.17;100.00
22580;BME280;11456;47.030;15.396;2022-10-16T00:16:10;97856.16;;;12.30;100.00
22580;BME280;11456;47.030;15.396;2022-10-16T00:18:37;97856.38;;;12.37;100.00
22580;BME280;11456;47.030;15.396;2022-10-16T00:21:05;97850.94;;;12.29;100.00
22580;BME280;11456;47.030;15.396;2022-10-16T00:23:32;97862.09;;;12.34;100.00
22580;BME280;11456;47.030;15.396;2022-10-16T00:26:00;97859.97;;;12.45;100.00
22580;BME280;11456;47.030;15.396;2022-10-16T00:28:27;97866.50;;;12.35;100.00
22580;BME280;11456;47.030;15.396;2022-10-16T00:30:54;97870.44;;;12.23;100.00
22580;BME280;11456;47.030;15.396;2022-10-16T00:33:21;97860.69;;;12.30;100.00
22580;BME280;11456;47.030;15.396;2022-10-16T00:35:48;97865.88;;;12.23;100.00
22580;BME280;11456;47.030;15.396;2022-10-16T00:38:14;97863.59;;;12.54;100.00
22580;BME280;11456;47.030;15.396;2022-10-16T00:40:41;97866.50;;;12.61;100.00
22580;BME280;11456;47.030;15.396;2022-10-16T00:43:14;97875.34;;;12.45;100.00
22580;BME280;11456;47.030;15.396;2022-10-16T00:45:58;97882.09;;;12.49;100.00
22580;BME280;11456;47.030;15.396;2022-10-16T00:48:25;97878.66;;;12.39;100.00
22580;BME280;11456;47.030;15.396;2022-10-16T00:50:51;97878.53;;;12.40;100.00
22580;BME280;11456;47.030;15.396;2022-10-16T00:53:18;97872.94;;;12.42;100.00
22580;BME280;11456;47.030;15.396;2022-10-16T00:55:45;97879.66;;;12.38;100.00
22580;BME280;11456;47.030;15.396;2022-10-16T00:58:12;97875.53;;;12.52;100.00
22580;BME280;11456;47.030;15.396;2022-10-16T01:00:38;97879.31;;;12.59;100.00
22580;BME280;11456;47.030;15.396;2022-10-16T01:03:21;97879.25;;;12.51;100.00
22580;BME280;11456;47.030;15.396;2022-10-16T01:05:54;97872.06;;;12.33;100.00
22580;BME280;11456;47.030;15.396;2022-10-16T01:09:09;97878.31;;;12.34;100.00
22580;BME280;11456;47.030;15.396;2022-10-16T01:11:22;97883.06;;;12.40;100.00
22580;BME280;11456;47.030;15.396;2022-10-16T01:13:51;97877.31;;;12.35;100.00
22580;BME280;11456;47.030;15.396;2022-10-16T01:16:31;97880.00;;;12.35;100.00
22580;BME280;11456;47.030;15.396;2022-10-16T01:19:02;97875.31;;;12.19;100.00
22580;BME280;11456;47.030;15.396;2022-10-16T01:21:33;97878.78;;;12.12;100.00
22580;BME280;11456;47.030;15.396;2022-10-16T01:24:03;97868.53;;;12.15;100.00
22580;BME280;11456;47.030;15.396;2022-10-16T01:26:37;97876.34;;;12.00;100.00
22580;BME280;11456;47.030;15.396;2022-10-16T01:29:13;97874.03;;;12.05;100.00
22580;BME280;11456;47.030;15.396;2022-10-16T01:31:42;97876.97;;;11.94;100.00
22580;BME280;11456;47.030;15.396;2022-10-16T01:34:18;97874.41;;;11.93;100.00
22580;BME280;11456;47.030;15.396;2022-10-16T01:36:49;97877.97;;;11.93;100.00
22580;BME280;11456;47.030;15.396;2022-10-16T01:39:17;97888.06;;;11.91;100.00
22580;BME280;11456;47.030;15.396;2022-10-16T01:41:48;97887.53;;;11.88;100.00
22580;BME280;11456;47.030;15.396;2022-10-16T01:44:18;97891.38;;;11.85;100.00
22580;BME280;11456;47.030;15.396;2022-10-16T01:46:46;97883.91;;;11.79;100.00
22580;BME280;11456;47.030;15.396;2022-10-16T01:49:14;97886.97;;;11.84;100.00
22580;BME280;11456;47.030;15.396;2022-10-16T01:51:43;97881.41;;;12.03;100.00
22580;BME280;11456;47.030;15.396;2022-10-16T01:54:11;97885.88;;;12.13;100.00
22580;BME280;11456;47.030;15.396;2022-10-16T01:56:39;97882.91;;;12.16;100.00
22580;BME280;11456;47.030;15.396;2022-10-16T01:59:09;97878.72;;;12.21;100.00
22580;BME280;11456;47.030;15.396;2022-10-16T02:01:38;97869.63;;;12.22;100.00
22580;BME280;11456;47.030;15.396;2022-10-16T02:04:51;97870.03;;;12.10;100.00
22580;BME280;11456;47.030;15.396;2022-10-16T02:06:56;97869.16;;;12.09;100.00
22580;BME280;11456;47.030;15.396;2022-10-16T02:09:23;97870.63;;;12.03;100.00
22580;BME280;11456;47.030;15.396;2022-10-16T02:11:51;97869.94;;;12.01;100.00
22580;BME280;11456;47.030;15.396;2022-10-16T02:14:20;97875.44;;;12.10;100.00
22580;BME280;11456;47.030;15.396;2022-10-16T02:16:48;97869.47;;;12.06;100.00
22580;BME280;11456;47.030;15.396;2022-10-16T02:19:15;97884.97;;;12.22;100.00
22580;BME280;11456;47.030;15.396;2022-10-16T02:21:44;97878.50;;;12.15;100.00
22580;BME280;11456;47.030;15.396;2022-10-16T02:24:17;97869.25;;;11.99;100.00
22580;BME280;11456;47.030;15.396;2022-10-16T02:26:52;97878.97;;;11.92;100.00
22580;BME280;11456;47.030;15.396;2022-10-16T02:29:20;97889.13;;;11.98;100.00
22580;BME280;11456;47.030;15.396;2022-10-16T02:31:50;97892.69;;;11.81;100.00
22580;BME280;11456;47.030;15.396;2022-10-16T02:34:21;97894.31;;;11.74;100.00
22580;BME280;11456;47.030;15.396;2022-10-16T02:36:49;97893.19;;;11.77;100.00
22580;BME280;11456;47.030;15.396;2022-10-16T02:39:16;97885.09;;;11.67;100.00
22580;BME280;11456;47.030;15.396;2022-10-16T02:41:44;97888.38;;;11.71;100.00
22580;BME280;11456;47.030;15.396;2022-10-16T02:44:10;97890.22;;;11.70;100.00
22580;BME280;11456;47.030;15.396;2022-10-16T02:46:37;97898.22;;;11.62;100.00
22580;BME280;11456;47.030;15.396;2022-10-16T02:49:03;97897.31;;;11.71;100.00
22580;BME280;11456;47.030;15.396;2022-10-16T02:51:30;97894.13;;;11.58;100.00
22580;BME280;11456;47.030;15.396;2022-10-16T02:53:57;97900.75;;;11.63;100.00
22580;BME280;11456;47.030;15.396;2022-10-16T02:56:23;97900.81;;;11.54;100.00
22580;BME280;11456;47.030;15.396;2022-10-16T02:58:50;97902.59;;;11.45;100.00
22580;BME280;11456;47.030;15.396;2022-10-16T03:01:16;97910.84;;;11.44;100.00
22580;BME280;11456;47.030;15.396;2022-10-16T03:03:43;97914.63;;;11.51;100.00
22580;BME280;11456;47.030;15.396;2022-10-16T03:06:09;97919.22;;;11.41;100.00
22580;BME280;11456;47.030;15.396;2022-10-16T03:08:36;97924.69;;;11.49;100.00
22580;BME280;11456;47.030;15.396;2022-10-16T03:11:02;97928.50;;;11.56;100.00
22580;BME280;11456;47.030;15.396;2022-10-16T03:13:29;97926.94;;;11.53;100.00
22580;BME280;11456;47.030;15.396;2022-10-16T03:15:55;97916.38;;;11.60;100.00
22580;BME280;11456;47.030;15.396;2022-10-16T03:18:22;97912.94;;;11.68;100.00
22580;BME280;11456;47.030;15.396;2022-10-16T03:20:48;97907.63;;;11.58;100.00
22580;BME280;11456;47.030;15.396;2022-10-16T03:23:15;97911.13;;;11.41;100.00
22580;BME280;11456;47.030;15.396;2022-10-16T03:25:41;97912.13;;;11.40;100.00
22580;BME280;11456;47.030;15.396;2022-10-16T03:28:08;97908.81;;;11.46;100.00
22580;BME280;11456;47.030;15.396;2022-10-16T03:30:35;97899.97;;;11.53;100.00
22580;BME280;11456;47.030;15.396;2022-10-16T03:33:01;97895.66;;;11.60;100.00
22580;BME280;11456;47.030;15.396;2022-10-16T03:35:28;97897.72;;;11.49;100.00
22580;BME280;11456;47.030;15.396;2022-10-16T03:37:54;97911.13;;;11.41;100.00
22580;BME280;11456;47.030;15.396;2022-10-16T03:40:21;97908.53;;;11.49;100.00
22580;BME280;11456;47.030;15.396;2022-10-16T03:42:47;97913.22;;;11.47;100.00
22580;BME280;11456;47.030;15.396;2022-10-16T03:45:14;97915.06;;;11.46;100.00
22580;BME280;11456;47.030;15.396;2022-10-16T03:47:40;97918.81;;;11.36;100.00
22580;BME280;11456;47.030;15.396;2022-10-16T03:50:07;97916.38;;;11.15;100.00
22580;BME280;11456;47.030;15.396;2022-10-16T03:52:34;97926.00;;;11.17;100.00
22580;BME280;11456;47.030;15.396;2022-10-16T03:55:00;97939.59;;;11.25;100.00
22580;BME280;11456;47.030;15.396;2022-10-16T03:57:27;97930.75;;;11.33;100.00
22580;BME280;11456;47.030;15.396;2022-10-16T03:59:54;97937.59;;;11.27;100.00
22580;BME280;11456;47.030;15.396;2022-10-16T04:02:20;97937.59;;;11.27;100.00
22580;BME280;11456;47.030;15.396;2022-10-16T04:04:47;97941.28;;;11.26;100.00
22580;BME280;11456;47.030;15.396;2022-10-16T04:07:13;97941.00;;;11.30;100.00
22580;BME280;11456;47.030;15.396;2022-10-16T04:09:40;97939.28;;;11.29;100.00
22580;BME280;11456;47.030;15.396;2022-10-16T04:12:07;97939.69;;;11.34;100.00
22580;BME280;11456;47.030;15.396;2022-10-16T04:14:33;97939.53;;;11.35;100.00
22580;BME280;11456;47.030;15.396;2022-10-16T04:17:00;97945.00;;;11.25;100.00
22580;BME280;11456;47.030;15.396;2022-10-16T04:19:26;97937.31;;;11.31;100.00
22580;BME280;11456;47.030;15.396;2022-10-16T04:21:53;97940.09;;;11.39;100.00
22580;BME280;11456;47.030;15.396;2022-10-16T04:24:19;97939.78;;;11.42;100.00
22580;BME280;11456;47.030;15.396;2022-10-16T04:26:46;97938.09;;;11.41;100.00
22580;BME280;11456;47.030;15.396;2022-10-16T04:29:12;97935.09;;;11.44;100.00
22580;BME280;11456;47.030;15.396;2022-10-16T04:31:39;97937.81;;;11.44;100.00
22580;BME280;11456;47.030;15.396;2022-10-16T04:34:05;97938.97;;;11.59;100.00
22580;BME280;11456;47.030;15.396;2022-10-16T04:36:32;97941.50;;;11.43;100.00
22580;BME280;11456;47.030;15.396;2022-10-16T04:38:58;97943.47;;;11.41;100.00
22580;BME280;11456;47.030;15.396;2022-10-16T04:41:25;97944.91;;;11.45;100.00
22580;BME280;11456;47.030;15.396;2022-10-16T04:43:52;97951.50;;;11.33;100.00
22580;BME280;11456;47.030;15.396;2022-10-16T04:46:18;97949.28;;;11.18;100.00
22580;BME280;11456;47.030;15.396;2022-10-16T04:48:44;97957.97;;;11.12;100.00
22580;BME280;11456;47.030;15.396;2022-10-16T04:51:13;97954.72;;;11.09;100.00
22580;BME280;11456;47.030;15.396;2022-10-16T04:53:39;97961.00;;;11.27;100.00
22580;BME280;11456;47.030;15.396;2022-10-16T04:56:05;97956.56;;;11.36;100.00
22580;BME280;11456;47.030;15.396;2022-10-16T04:58:32;97959.66;;;11.41;100.00
22580;BME280;11456;47.030;15.396;2022-10-16T05:00:59;97961.69;;;11.39;100.00
22580;BME280;11456;47.030;15.396;2022-10-16T05:03:25;97961.06;;;11.45;100.00
22580;BME280;11456;47.030;15.396;2022-10-16T05:05:52;97968.97;;;11.56;100.00
22580;BME280;11456;47.030;15.396;2022-10-16T05:08:19;97975.44;;;11.36;100.00
22580;BME280;11456;47.030;15.396;2022-10-16T05:10:45;97973.25;;;11.49;100.00
22580;BME280;11456;47.030;15.396;2022-10-16T05:13:11;97973.63;;;11.54;100.00
22580;BME280;11456;47.030;15.396;2022-10-16T05:15:38;97975.00;;;11.40;100.00
22580;BME280;11456;47.030;15.396;2022-10-16T05:18:05;97975.34;;;11.27;100.00
22580;BME280;11456;47.030;15.396;2022-10-16T05:20:31;97981.56;;;11.38;100.00
22580;BME280;11456;47.030;15.396;2022-10-16T05:22:58;97987.72;;;11.48;100.00
22580;BME280;11456;47.030;15.396;2022-10-16T05:25:24;97989.72;;;11.46;100.00
22580;BME280;11456;47.030;15.396;2022-10-16T05:27:51;97989.72;;;11.46;100.00
22580;BME280;11456;47.030;15.396;2022-10-16T05:30:18;97998.84;;;11.45;100.00
22580;BME280;11456;47.030;15.396;2022-10-16T05:32:48;98005.13;;;11.36;100.00
22580;BME280;11456;47.030;15.396;2022-10-16T05:35:15;98012.50;;;11.34;100.00
22580;BME280;11456;47.030;15.396;2022-10-16T05:37:43;98014.56;;;11.49;100.00
22580;BME280;11456;47.030;15.396;2022-10-16T05:40:10;98006.13;;;11.62;100.00
22580;BME280;11456;47.030;15.396;2022-10-16T05:42:37;98006.13;;;11.62;100.00
22580;BME280;11456;47.030;15.396;2022-10-16T05:45:04;98003.72;;;11.59;100.00
22580;BME280;11456;47.030;15.396;2022-10-16T05:47:31;98002.19;;;11.56;100.00
22580;BME280;11456;47.030;15.396;2022-10-16T05:49:58;98003.31;;;11.54;100.00
22580;BME280;11456;47.030;15.396;2022-10-16T05:52:24;98009.13;;;11.32;100.00
22580;BME280;11456;47.030;15.396;2022-10-16T05:54:51;98009.69;;;11.53;100.00
22580;BME280;11456;47.030;15.396;2022-10-16T05:57:17;98013.25;;;11.53;100.00
22580;BME280;11456;47.030;15.396;2022-10-16T05:59:44;98021.16;;;11.27;100.00
22580;BME280;11456;47.030;15.396;2022-10-16T06:02:14;98027.69;;;11.62;100.00
22580;BME280;11456;47.030;15.396;2022-10-16T06:04:40;98034.03;;;11.43;100.00
22580;BME280;11456;47.030;15.396;2022-10-16T06:07:07;98032.56;;;11.58;100.00
22580;BME280;11456;47.030;15.396;2022-10-16T06:09:33;98047.28;;;11.64;100.00
22580;BME280;11456;47.030;15.396;2022-10-16T06:12:00;98045.59;;;11.63;100.00
22580;BME280;11456;47.030;15.396;2022-10-16T06:14:26;98054.69;;;11.62;100.00
22580;BME280;11456;47.030;15.396;2022-10-16T06:16:53;98056.97;;;11.57;100.00
22580;BME280;11456;47.030;15.396;2022-10-16T06:19:19;98053.88;;;11.52;100.00
22580;BME280;11456;47.030;15.396;2022-10-16T06:21:46;98055.22;;;11.65;100.00
22580;BME280;11456;47.030;15.396;2022-10-16T06:24:13;98056.38;;;11.63;100.00
22580;BME280;11456;47.030;15.396;2022-10-16T06:26:39;98065.69;;;11.78;100.00
22580;BME280;11456;47.030;15.396;2022-10-16T06:29:07;98064.66;;;11.89;100.00
22580;BME280;11456;47.030;15.396;2022-10-16T06:31:34;98069.59;;;11.93;100.00
22580;BME280;11456;47.030;15.396;2022-10-16T06:34:01;98075.88;;;11.84;100.00
22580;BME280;11456;47.030;15.396;2022-10-16T06:36:28;98082.38;;;12.19;100.00
22580;BME280;11456;47.030;15.396;2022-10-16T06:38:54;98087.00;;;12.09;100.00
22580;BME280;11456;47.030;15.396;2022-10-16T06:41:21;98084.59;;;12.05;100.00
22580;BME280;11456;47.030;15.396;2022-10-16T06:43:49;98090.47;;;12.19;100.00
22580;BME280;11456;47.030;15.396;2022-10-16T06:46:16;98102.34;;;11.81;100.00
22580;BME280;11456;47.030;15.396;2022-10-16T06:48:44;98094.91;;;12.10;100.00
22580;BME280;11456;47.030;15.396;2022-10-16T06:51:14;98100.19;;;12.12;100.00
22580;BME280;11456;47.030;15.396;2022-10-16T06:53:43;98102.09;;;12.01;100.00
22580;BME280;11456;47.030;15.396;2022-10-16T06:56:28;98101.97;;;12.21;100.00
22580;BME280;11456;47.030;15.396;2022-10-16T06:58:57;98103.47;;;12.33;100.00
22580;BME280;11456;47.030;15.396;2022-10-16T07:01:24;98096.78;;;12.72;100.00
22580;BME280;11456;47.030;15.396;2022-10-16T07:03:51;98099.59;;;12.89;100.00
22580;BME280;11456;47.030;15.396;2022-10-16T07:06:18;98103.09;;;12.63;100.00
22580;BME280;11456;47.030;15.396;2022-10-16T07:08:46;98100.47;;;12.71;100.00
22580;BME280;11456;47.030;15.396;2022-10-16T07:11:14;98103.00;;;12.55;100.00
22580;BME280;11456;47.030;15.396;2022-10-16T07:13:42;98097.84;;;12.44;100.00
22580;BME280;11456;47.030;15.396;2022-10-16T07:16:12;98109.34;;;12.64;100.00
22580;BME280;11456;47.030;15.396;2022-10-16T07:18:39;98096.69;;;12.64;100.00
22580;BME280;11456;47.030;15.396;2022-10-16T07:21:07;98101.63;;;12.51;100.00
22580;BME280;11456;47.030;15.396;2022-10-16T07:23:33;98110.63;;;12.42;100.00
22580;BME280;11456;47.030;15.396;2022-10-16T07:26:00;98105.00;;;12.89;100.00
22580;BME280;11456;47.030;15.396;2022-10-16T07:28:27;98102.53;;;13.13;100.00
22580;BME280;11456;47.030;15.396;2022-10-16T07:30:54;98108.81;;;13.39;100.00
22580;BME280;11456;47.030;15.396;2022-10-16T07:33:20;98119.41;;;13.50;100.00
22580;BME280;11456;47.030;15.396;2022-10-16T07:35:48;98105.88;;;13.58;100.00
22580;BME280;11456;47.030;15.396;2022-10-16T07:38:15;98100.59;;;13.75;100.00
22580;BME280;11456;47.030;15.396;2022-10-16T07:40:41;98102.31;;;13.84;100.00
22580;BME280;11456;47.030;15.396;2022-10-16T07:43:08;98111.88;;;13.70;100.00
22580;BME280;11456;47.030;15.396;2022-10-16T07:45:34;98112.41;;;13.74;100.00
22580;BME280;11456;47.030;15.396;2022-10-16T07:48:01;98107.41;;;13.87;100.00
22580;BME280;11456;47.030;15.396;2022-10-16T07:50:27;98109.97;;;13.88;100.00
22580;BME280;11456;47.030;15.396;2022-10-16T07:52:54;98106.66;;;13.77;100.00
22580;BME280;11456;47.030;15.396;2022-10-16T07:55:20;98109.59;;;14.25;100.00
22580;BME280;11456;47.030;15.396;2022-10-16T07:57:47;98107.41;;;13.87;100.00
22580;BME280;11456;47.030;15.396;2022-10-16T08:00:13;98118.47;;;13.68;100.00
22580;BME280;11456;47.030;15.396;2022-10-16T08:02:40;98118.03;;;13.80;100.00
22580;BME280;11456;47.030;15.396;2022-10-16T08:05:06;98120.00;;;14.04;100.00
22580;BME280;11456;47.030;15.396;2022-10-16T08:07:33;98120.34;;;14.43;100.00
22580;BME280;11456;47.030;15.396;2022-10-16T08:10:00;98123.59;;;14.47;100.00
22580;BME280;11456;47.030;15.396;2022-10-16T08:12:26;98116.34;;;14.79;99.84
22580;BME280;11456;47.030;15.396;2022-10-16T08:14:53;98115.53;;;15.11;97.03
22580;BME280;11456;47.030;15.396;2022-10-16T08:17:19;98123.84;;;15.58;95.25
22580;BME280;11456;47.030;15.396;2022-10-16T08:19:46;98124.34;;;15.13;95.18
22580;BME280;11456;47.030;15.396;2022-10-16T08:22:14;98118.56;;;15.33;94.38
22580;BME280;11456;47.030;15.396;2022-10-16T08:24:40;98122.91;;;15.90;91.99
22580;BME280;11456;47.030;15.396;2022-10-16T08:27:07;98136.69;;;16.28;91.03
22580;BME280;11456;47.030;15.396;2022-10-16T08:29:35;98127.09;;;17.24;86.65
22580;BME280;11456;47.030;15.396;2022-10-16T08:32:03;98131.03;;;16.76;88.10
22580;BME280;11456;47.030;15.396;2022-10-16T08:34:30;98122.47;;;17.71;85.12
22580;BME280;11456;47.030;15.396;2022-10-16T08:36:56;98121.63;;;17.85;80.81
22580;BME280;11456;47.030;15.396;2022-10-16T08:39:23;98127.00;;;17.55;81.22
22580;BME280;11456;47.030;15.396;2022-10-16T08:46:45;98130.78;;;18.72;74.33
22580;BME280;11456;47.030;15.396;2022-10-16T08:49:17;98132.19;;;19.25;76.37
22580;BME280;11456;47.030;15.396;2022-10-16T08:51:44;98134.44;;;18.79;73.93
22580;BME280;11456;47.030;15.396;2022-10-16T08:54:21;98139.06;;;18.64;75.23
22580;BME280;11456;47.030;15.396;2022-10-16T08:56:49;98138.22;;;19.42;75.09
22580;BME280;11456;47.030;15.396;2022-10-16T08:59:15;98140.28;;;19.40;73.28
22580;BME280;11456;47.030;15.396;2022-10-16T09:01:46;98140.31;;;19.18;74.19
22580;BME280;11456;47.030;15.396;2022-10-16T09:06:54;98143.91;;;19.61;70.99
22580;BME280;11456;47.030;15.396;2022-10-16T09:22:42;98137.34;;;19.84;67.26
22580;BME280;11456;47.030;15.396;2022-10-16T09:25:16;98139.75;;;20.28;65.64
22580;BME280;11456;47.030;15.396;2022-10-16T09:27:44;98149.09;;;20.94;63.07
22580;BME280;11456;47.030;15.396;2022-10-16T09:30:16;98144.25;;;20.96;63.39
22580;BME280;11456;47.030;15.396;2022-10-16T09:32:43;98150.72;;;21.49;62.01
22580;BME280;11456;47.030;15.396;2022-10-16T09:35:15;98145.69;;;21.99;60.83
22580;BME280;11456;47.030;15.396;2022-10-16T09:37:44;98152.00;;;21.93;60.46
22580;BME280;11456;47.030;15.396;2022-10-16T09:40:12;98147.06;;;22.34;58.09
22580;BME280;11456;47.030;15.396;2022-10-16T09:42:42;98145.91;;;22.68;56.01
22580;BME280;11456;47.030;15.396;2022-10-16T09:45:19;98147.25;;;22.53;57.30
22580;BME280;11456;47.030;15.396;2022-10-16T09:47:46;98142.72;;;22.01;58.86
22580;BME280;11456;47.030;15.396;2022-10-16T09:50:54;98141.81;;;22.33;56.72
22580;BME280;11456;47.030;15.396;2022-10-16T09:53:10;98141.19;;;22.37;56.98
22580;BME280;11456;47.030;15.396;2022-10-16T09:55:47;98140.00;;;22.71;57.03
22580;BME280;11456;47.030;15.396;2022-10-16T09:58:14;98136.78;;;22.17;56.98
22580;BME280;11456;47.030;15.396;2022-10-16T10:00:41;98139.22;;;22.58;55.51
22580;BME280;11456;47.030;15.396;2022-10-16T10:03:10;98145.06;;;22.81;56.02
22580;BME280;11456;47.030;15.396;2022-10-16T10:05:37;98145.47;;;22.85;54.62
22580;BME280;11456;47.030;15.396;2022-10-16T10:08:05;98142.13;;;23.14;55.44
22580;BME280;11456;47.030;15.396;2022-10-16T10:10:33;98139.69;;;23.31;54.18
22580;BME280;11456;47.030;15.396;2022-10-16T10:13:00;98139.91;;;23.67;51.95
22580;BME280;11456;47.030;15.396;2022-10-16T10:15:28;98137.53;;;23.71;52.21
22580;BME280;11456;47.030;15.396;2022-10-16T10:17:59;98129.13;;;23.90;50.97
22580;BME280;11456;47.030;15.396;2022-10-16T10:20:32;98138.50;;;23.20;53.21
22580;BME280;11456;47.030;15.396;2022-10-16T10:23:01;98139.00;;;23.98;52.28
22580;BME280;11456;47.030;15.396;2022-10-16T10:30:42;98138.53;;;24.26;49.66
22580;BME280;11456;47.030;15.396;2022-10-16T10:38:21;98130.63;;;23.86;48.93
22580;BME280;11456;47.030;15.396;2022-10-16T10:41:36;98121.50;;;24.35;49.64
22580;BME280;11456;47.030;15.396;2022-10-16T10:46:09;98124.00;;;24.19;49.55
22580;BME280;11456;47.030;15.396;2022-10-16T10:54:14;98122.00;;;24.99;45.47
22580;BME280;11456;47.030;15.396;2022-10-16T10:56:55;98120.19;;;24.93;46.07
22580;BME280;11456;47.030;15.396;2022-10-16T11:01:57;98125.75;;;25.34;45.27
22580;BME280;11456;47.030;15.396;2022-10-16T11:06:57;98129.63;;;25.15;44.47
22580;BME280;11456;47.030;15.396;2022-10-16T11:09:26;98127.38;;;24.75;45.16
22580;BME280;11456;47.030;15.396;2022-10-16T11:25:01;98119.81;;;25.19;43.27
22580;BME280;11456;47.030;15.396;2022-10-16T11:27:36;98106.19;;;25.66;42.21
22580;BME280;11456;47.030;15.396;2022-10-16T11:30:05;98106.69;;;25.86;41.07
22580;BME280;11456;47.030;15.396;2022-10-16T11:32:40;98117.00;;;25.37;42.01
22580;BME280;11456;47.030;15.396;2022-10-16T11:35:17;98113.84;;;25.64;41.63
22580;BME280;11456;47.030;15.396;2022-10-16T11:37:46;98104.63;;;25.81;42.81
22580;BME280;11456;47.030;15.396;2022-10-16T11:40:22;98111.84;;;26.17;40.97
22580;BME280;11456;47.030;15.396;2022-10-16T11:42:57;98111.03;;;26.28;41.02
22580;BME280;11456;47.030;15.396;2022-10-16T11:45:40;98104.97;;;24.35;45.72
22580;BME280;11456;47.030;15.396;2022-10-16T11:48:23;98101.50;;;25.66;42.29
22580;BME280;11456;47.030;15.396;2022-10-16T11:53:51;98098.03;;;25.71;41.94
22580;BME280;11456;47.030;15.396;2022-10-16T11:56:20;98103.09;;;25.97;42.87
22580;BME280;11456;47.030;15.396;2022-10-16T11:58:58;98110.78;;;26.42;41.54
22580;BME280;11456;47.030;15.396;2022-10-16T12:01:41;98099.38;;;25.91;42.03
22580;BME280;11456;47.030;15.396;2022-10-16T12:07:06;98099.69;;;26.18;41.85
22580;BME280;11456;47.030;15.396;2022-10-16T12:09:34;98102.25;;;26.08;40.73
22580;BME280;11456;47.030;15.396;2022-10-16T12:12:02;98101.78;;;26.34;40.69
22580;BME280;11456;47.030;15.396;2022-10-16T12:16:57;98098.88;;;25.83;41.70
22580;BME280;11456;47.030;15.396;2022-10-16T12:19:25;98094.22;;;26.70;39.30
22580;BME280;11456;47.030;15.396;2022-10-16T12:21:52;98098.78;;;26.76;38.69
22580;BME280;11456;47.030;15.396;2022-10-16T12:24:42;98091.56;;;26.23;38.76
22580;BME280;11456;47.030;15.396;2022-10-16T12:29:57;98094.38;;;26.75;38.27
22580;BME280;11456;47.030;15.396;2022-10-16T12:32:31;98094.28;;;26.58;38.38
22580;BME280;11456;47.030;15.396;2022-10-16T12:35:18;98099.50;;;26.95;37.57
22580;BME280;11456;47.030;15.396;2022-10-16T12:37:46;98090.84;;;27.20;37.67
22580;BME280;11456;47.030;15.396;2022-10-16T12:40:34;98096.72;;;27.40;36.99
22580;BME280;11456;47.030;15.396;2022-10-16T12:43:10;98097.81;;;26.30;38.67
22580;BME280;11456;47.030;15.396;2022-10-16T12:45:37;98100.66;;;26.12;39.12
22580;BME280;11456;47.030;15.396;2022-10-16T12:48:04;98097.44;;;26.90;36.93
22580;BME280;11456;47.030;15.396;2022-10-16T12:50:44;98100.94;;;26.86;37.05
22580;BME280;11456;47.030;15.396;2022-10-16T12:53:24;98097.09;;;26.87;38.42
22580;BME280;11456;47.030;15.396;2022-10-16T12:58:21;98107.44;;;27.20;37.25
22580;BME280;11456;47.030;15.396;2022-10-16T13:00:57;98103.19;;;26.02;39.27
22580;BME280;11456;47.030;15.396;2022-10-16T13:16:26;98114.03;;;26.79;38.83
22580;BME280;11456;47.030;15.396;2022-10-16T13:19:19;98111.38;;;26.95;38.61
22580;BME280;11456;47.030;15.396;2022-10-16T13:21:59;98120.78;;;26.71;39.29
22580;BME280;11456;47.030;15.396;2022-10-16T13:29:48;98125.50;;;26.01;41.76
22580;BME280;11456;47.030;15.396;2022-10-16T13:32:18;98131.88;;;25.78;40.46
22580;BME280;11456;47.030;15.396;2022-10-16T13:34:46;98123.72;;;25.83;40.56
22580;BME280;11456;47.030;15.396;2022-10-16T13:37:17;98130.78;;;26.14;39.53
22580;BME280;11456;47.030;15.396;2022-10-16T13:39:44;98139.75;;;25.63;41.24
22580;BME280;11456;47.030;15.396;2022-10-16T13:42:12;98131.97;;;25.41;41.81
22580;BME280;11456;47.030;15.396;2022-10-16T13:44:40;98139.75;;;25.63;40.98
22580;BME280;11456;47.030;15.396;2022-10-16T13:47:28;98143.22;;;25.28;41.56
22580;BME280;11456;47.030;15.396;2022-10-16T13:49:59;98140.25;;;25.83;39.99
22580;BME280;11456;47.030;15.396;2022-10-16T13:52:27;98145.50;;;25.61;40.23
22580;BME280;11456;47.030;15.396;2022-10-16T13:54:54;98147.25;;;25.55;41.40
22580;BME280;11456;47.030;15.396;2022-10-16T13:57:27;98141.84;;;25.90;40.42
22580;BME280;11456;47.030;15.396;2022-10-16T13:59:54;98143.00;;;25.60;41.01
22580;BME280;11456;47.030;15.396;2022-10-16T14:04:51;98143.22;;;25.28;42.59
22580;BME280;11456;47.030;15.396;2022-10-16T14:07:20;98149.03;;;25.08;42.63
22580;BME280;11456;47.030;15.396;2022-10-16T14:09:50;98158.81;;;25.04;42.59
22580;BME280;11456;47.030;15.396;2022-10-16T14:12:17;98155.69;;;24.83;42.74
22580;BME280;11456;47.030;15.396;2022-10-16T14:14:46;98153.38;;;24.61;43.76
22580;BME280;11456;47.030;15.396;2022-10-16T14:17:14;98156.91;;;24.50;44.25
22580;BME280;11456;47.030;15.396;2022-10-16T14:19:44;98156.16;;;24.61;43.92
22580;BME280;11456;47.030;15.396;2022-10-16T14:24:55;98166.53;;;24.59;43.72
22580;BME280;11456;47.030;15.396;2022-10-16T14:27:27;98168.69;;;24.57;43.58